sensor_id;sensor_type;location;lat;lon;timestamp;temperature;humidity
19258;DHT22;9763;48.780;9.212;2024-02-26T00:00:11;11.70;72.10
19258;DHT22;9763;48.780;9.212;2024-02-26T00:03:37;11.70;71.70
19258;DHT22;9763;48.780;9.212;2024-02-26T00:07:03;11.70;71.90
19258;DHT22;9763;48.780;9.212;2024-02-26T00:10:27;11.70;72.20
19258;DHT22;9763;48.780;9.212;2024-02-26T00:13:51;11.70;72.10
19258;DHT22;9763;48.780;9.212;2024-02-26T00:17:16;11.70;72.10
19258;DHT22;9763;48.780;9.212;2024-02-26T00:20:40;11.60;71.70
19258;DHT22;9763;48.780;9.212;2024-02-26T00:24:05;11.60;71.80
19258;DHT22;9763;48.780;9.212;2024-02-26T00:27:30;11.60;72.10
19258;DHT22;9763;48.780;9.212;2024-02-26T00:30:53;11.60;71.80
19258;DHT22;9763;48.780;9.212;2024-02-26T00:34:19;11.60;71.80
19258;DHT22;9763;48.780;9.212;2024-02-26T00:37:44;11.60;71.80
19258;DHT22;9763;48.780;9.212;2024-02-26T00:41:07;11.60;72.00
19258;DHT22;9763;48.780;9.212;2024-02-26T00:44:31;11.60;72.00
19258;DHT22;9763;48.780;9.212;2024-02-26T00:47:54;11.60;72.00
19258;DHT22;9763;48.780;9.212;2024-02-26T00:51:20;11.50;71.90
19258;DHT22;9763;48.780;9.212;2024-02-26T00:54:48;11.50;71.90
19258;DHT22;9763;48.780;9.212;2024-02-26T00:58:11;11.50;71.90
19258;DHT22;9763;48.780;9.212;2024-02-26T01:01:35;11.50;71.70
19258;DHT22;9763;48.780;9.212;2024-02-26T01:04:59;11.60;72.60
19258;DHT22;9763;48.780;9.212;2024-02-26T01:08:25;11.60;72.00
19258;DHT22;9763;48.780;9.212;2024-02-26T01:11:49;11.60;71.80
19258;DHT22;9763;48.780;9.212;2024-02-26T01:15:13;11.60;71.80
19258;DHT22;9763;48.780;9.212;2024-02-26T01:18:37;11.60;71.70
19258;DHT22;9763;48.780;9.212;2024-02-26T01:22:01;11.60;71.70
19258;DHT22;9763;48.780;9.212;2024-02-26T01:25:25;11.60;71.70
19258;DHT22;9763;48.780;9.212;2024-02-26T01:28:49;11.60;71.50
19258;DHT22;9763;48.780;9.212;2024-02-26T01:32:13;11.60;71.70
19258;DHT22;9763;48.780;9.212;2024-02-26T01:35:37;11.50;71.50
19258;DHT22;9763;48.780;9.212;2024-02-26T01:39:01;11.50;71.50
19258;DHT22;9763;48.780;9.212;2024-02-26T01:42:27;11.60;71.60
19258;DHT22;9763;48.780;9.212;2024-02-26T01:45:51;11.50;71.40
19258;DHT22;9763;48.780;9.212;2024-02-26T01:49:15;11.50;71.60
19258;DHT22;9763;48.780;9.212;2024-02-26T01:52:40;11.50;71.60
19258;DHT22;9763;48.780;9.212;2024-02-26T01:56:04;11.50;71.30
19258;DHT22;9763;48.780;9.212;2024-02-26T01:59:29;11.40;71.10
19258;DHT22;9763;48.780;9.212;2024-02-26T02:02:53;11.40;71.30
19258;DHT22;9763;48.780;9.212;2024-02-26T02:06:18;11.40;71.60
19258;DHT22;9763;48.780;9.212;2024-02-26T02:09:42;11.40;71.60
19258;DHT22;9763;48.780;9.212;2024-02-26T02:13:06;11.40;71.50
19258;DHT22;9763;48.780;9.212;2024-02-26T02:16:32;11.40;71.70
19258;DHT22;9763;48.780;9.212;2024-02-26T02:19:56;11.30;71.20
19258;DHT22;9763;48.780;9.212;2024-02-26T02:23:20;11.30;71.40
19258;DHT22;9763;48.780;9.212;2024-02-26T02:26:44;11.30;71.40
19258;DHT22;9763;48.780;9.212;2024-02-26T02:30:09;11.30;71.60
19258;DHT22;9763;48.780;9.212;2024-02-26T02:33:34;11.30;71.70
19258;DHT22;9763;48.780;9.212;2024-02-26T02:36:58;11.20;71.70
19258;DHT22;9763;48.780;9.212;2024-02-26T02:40:23;11.30;71.70
19258;DHT22;9763;48.780;9.212;2024-02-26T02:43:47;11.20;71.80
19258;DHT22;9763;48.780;9.212;2024-02-26T02:47:11;11.20;72.00
19258;DHT22;9763;48.780;9.212;2024-02-26T02:50:34;11.20;71.80
19258;DHT22;9763;48.780;9.212;2024-02-26T02:53:58;11.20;72.00
19258;DHT22;9763;48.780;9.212;2024-02-26T02:57:23;11.20;71.90
19258;DHT22;9763;48.780;9.212;2024-02-26T03:00:46;11.20;71.90
19258;DHT22;9763;48.780;9.212;2024-02-26T03:04:10;11.20;71.80
19258;DHT22;9763;48.780;9.212;2024-02-26T03:07:34;11.20;71.70
19258;DHT22;9763;48.780;9.212;2024-02-26T03:10:58;11.20;71.80
19258;DHT22;9763;48.780;9.212;2024-02-26T03:14:24;11.20;71.80
19258;DHT22;9763;48.780;9.212;2024-02-26T03:17:48;11.20;71.90
19258;DHT22;9763;48.780;9.212;2024-02-26T03:21:11;11.20;71.80
19258;DHT22;9763;48.780;9.212;2024-02-26T03:24:35;11.20;71.80
19258;DHT22;9763;48.780;9.212;2024-02-26T03:27:58;11.20;72.00
19258;DHT22;9763;48.780;9.212;2024-02-26T03:31:23;11.10;71.70
19258;DHT22;9763;48.780;9.212;2024-02-26T03:34:47;11.10;71.80
19258;DHT22;9763;48.780;9.212;2024-02-26T03:38:10;11.10;71.70
19258;DHT22;9763;48.780;9.212;2024-02-26T03:41:34;11.10;72.00
19258;DHT22;9763;48.780;9.212;2024-02-26T03:44:58;11.10;72.00
19258;DHT22;9763;48.780;9.212;2024-02-26T03:48:23;11.10;72.10
19258;DHT22;9763;48.780;9.212;2024-02-26T03:51:46;11.10;72.00
19258;DHT22;9763;48.780;9.212;2024-02-26T03:55:10;11.10;72.00
19258;DHT22;9763;48.780;9.212;2024-02-26T03:58:33;11.10;72.00
19258;DHT22;9763;48.780;9.212;2024-02-26T04:01:57;11.10;72.30
19258;DHT22;9763;48.780;9.212;2024-02-26T04:05:21;11.10;72.40
19258;DHT22;9763;48.780;9.212;2024-02-26T04:08:45;11.10;72.30
19258;DHT22;9763;48.780;9.212;2024-02-26T04:12:09;11.10;72.10
19258;DHT22;9763;48.780;9.212;2024-02-26T04:15:33;11.10;72.40
19258;DHT22;9763;48.780;9.212;2024-02-26T04:18:56;11.10;72.30
19258;DHT22;9763;48.780;9.212;2024-02-26T04:22:21;11.10;72.40
19258;DHT22;9763;48.780;9.212;2024-02-26T04:25:45;11.10;72.30
19258;DHT22;9763;48.780;9.212;2024-02-26T04:29:09;11.10;72.30
19258;DHT22;9763;48.780;9.212;2024-02-26T04:32:32;11.10;72.30
19258;DHT22;9763;48.780;9.212;2024-02-26T04:35:56;11.20;72.30
19258;DHT22;9763;48.780;9.212;2024-02-26T04:39:21;11.10;72.10
19258;DHT22;9763;48.780;9.212;2024-02-26T04:42:44;11.10;72.00
19258;DHT22;9763;48.780;9.212;2024-02-26T04:46:08;11.10;72.10
19258;DHT22;9763;48.780;9.212;2024-02-26T04:49:32;11.10;72.10
19258;DHT22;9763;48.780;9.212;2024-02-26T04:52:56;11.00;72.10
19258;DHT22;9763;48.780;9.212;2024-02-26T04:56:21;11.00;72.20
19258;DHT22;9763;48.780;9.212;2024-02-26T04:59:44;11.00;72.20
19258;DHT22;9763;48.780;9.212;2024-02-26T05:03:08;11.00;72.10
19258;DHT22;9763;48.780;9.212;2024-02-26T05:06:36;11.00;72.10
19258;DHT22;9763;48.780;9.212;2024-02-26T05:10:00;11.00;72.10
19258;DHT22;9763;48.780;9.212;2024-02-26T05:13:25;11.00;72.10
19258;DHT22;9763;48.780;9.212;2024-02-26T05:16:49;11.10;72.10
19258;DHT22;9763;48.780;9.212;2024-02-26T05:20:13;11.10;72.10
19258;DHT22;9763;48.780;9.212;2024-02-26T05:23:36;11.10;72.10
19258;DHT22;9763;48.780;9.212;2024-02-26T05:27:00;11.20;72.20
19258;DHT22;9763;48.780;9.212;2024-02-26T05:30:25;11.20;72.10
19258;DHT22;9763;48.780;9.212;2024-02-26T05:33:50;11.20;71.80
19258;DHT22;9763;48.780;9.212;2024-02-26T05:37:14;11.10;71.90
19258;DHT22;9763;48.780;9.212;2024-02-26T05:40:37;11.20;72.10
19258;DHT22;9763;48.780;9.212;2024-02-26T05:44:01;11.10;72.00
19258;DHT22;9763;48.780;9.212;2024-02-26T05:47:27;11.20;71.80
19258;DHT22;9763;48.780;9.212;2024-02-26T05:50:50;11.10;71.60
19258;DHT22;9763;48.780;9.212;2024-02-26T05:54:14;11.10;71.80
19258;DHT22;9763;48.780;9.212;2024-02-26T05:57:37;11.00;71.70
19258;DHT22;9763;48.780;9.212;2024-02-26T06:01:01;11.00;71.80
19258;DHT22;9763;48.780;9.212;2024-02-26T06:04:26;11.00;72.10
19258;DHT22;9763;48.780;9.212;2024-02-26T06:07:50;11.00;72.10
19258;DHT22;9763;48.780;9.212;2024-02-26T06:11:14;11.00;72.40
19258;DHT22;9763;48.780;9.212;2024-02-26T06:14:37;10.90;72.10
19258;DHT22;9763;48.780;9.212;2024-02-26T06:18:01;10.90;72.00
19258;DHT22;9763;48.780;9.212;2024-02-26T06:21:26;10.90;72.00
19258;DHT22;9763;48.780;9.212;2024-02-26T06:24:50;10.80;71.90
19258;DHT22;9763;48.780;9.212;2024-02-26T06:28:13;10.70;71.80
19258;DHT22;9763;48.780;9.212;2024-02-26T06:31:37;10.70;72.00
19258;DHT22;9763;48.780;9.212;2024-02-26T06:35:01;10.60;72.20
19258;DHT22;9763;48.780;9.212;2024-02-26T06:38:31;10.60;72.40
19258;DHT22;9763;48.780;9.212;2024-02-26T06:41:54;10.50;72.30
19258;DHT22;9763;48.780;9.212;2024-02-26T06:45:22;10.50;72.50
19258;DHT22;9763;48.780;9.212;2024-02-26T06:48:47;10.50;72.60
19258;DHT22;9763;48.780;9.212;2024-02-26T06:52:16;10.50;72.60
19258;DHT22;9763;48.780;9.212;2024-02-26T06:55:41;10.60;72.80
19258;DHT22;9763;48.780;9.212;2024-02-26T06:59:05;10.50;72.90
19258;DHT22;9763;48.780;9.212;2024-02-26T07:02:28;10.50;73.20
19258;DHT22;9763;48.780;9.212;2024-02-26T07:05:52;10.60;73.50
19258;DHT22;9763;48.780;9.212;2024-02-26T07:09:16;10.60;73.60
19258;DHT22;9763;48.780;9.212;2024-02-26T07:12:40;10.60;73.40
19258;DHT22;9763;48.780;9.212;2024-02-26T07:16:05;10.60;73.50
19258;DHT22;9763;48.780;9.212;2024-02-26T07:19:29;10.70;73.90
19258;DHT22;9763;48.780;9.212;2024-02-26T07:22:52;10.70;74.10
19258;DHT22;9763;48.780;9.212;2024-02-26T07:26:16;10.80;74.20
19258;DHT22;9763;48.780;9.212;2024-02-26T07:29:42;10.80;74.20
19258;DHT22;9763;48.780;9.212;2024-02-26T07:33:06;10.90;74.20
19258;DHT22;9763;48.780;9.212;2024-02-26T07:36:31;11.00;74.70
19258;DHT22;9763;48.780;9.212;2024-02-26T07:39:54;11.00;73.70
19258;DHT22;9763;48.780;9.212;2024-02-26T07:43:18;11.00;74.20
19258;DHT22;9763;48.780;9.212;2024-02-26T07:46:42;11.00;74.30
19258;DHT22;9763;48.780;9.212;2024-02-26T07:50:07;11.10;74.20
19258;DHT22;9763;48.780;9.212;2024-02-26T07:53:31;11.10;74.20
19258;DHT22;9763;48.780;9.212;2024-02-26T07:56:55;11.10;74.20
19258;DHT22;9763;48.780;9.212;2024-02-26T08:00:19;11.10;74.20
19258;DHT22;9763;48.780;9.212;2024-02-26T08:03:44;11.20;74.30
19258;DHT22;9763;48.780;9.212;2024-02-26T08:07:08;11.20;74.30
19258;DHT22;9763;48.780;9.212;2024-02-26T08:10:31;11.30;74.70
19258;DHT22;9763;48.780;9.212;2024-02-26T08:13:55;11.40;74.90
19258;DHT22;9763;48.780;9.212;2024-02-26T08:17:18;11.50;75.00
19258;DHT22;9763;48.780;9.212;2024-02-26T08:20:43;11.50;75.10
19258;DHT22;9763;48.780;9.212;2024-02-26T08:24:07;11.60;75.10
19258;DHT22;9763;48.780;9.212;2024-02-26T08:27:31;11.60;74.90
19258;DHT22;9763;48.780;9.212;2024-02-26T08:30:54;11.70;74.60
19258;DHT22;9763;48.780;9.212;2024-02-26T08:34:18;11.80;74.40
19258;DHT22;9763;48.780;9.212;2024-02-26T08:37:45;11.70;73.90
19258;DHT22;9763;48.780;9.212;2024-02-26T08:41:09;11.70;73.70
19258;DHT22;9763;48.780;9.212;2024-02-26T08:44:33;11.70;73.80
19258;DHT22;9763;48.780;9.212;2024-02-26T08:47:56;11.80;74.30
19258;DHT22;9763;48.780;9.212;2024-02-26T08:51:22;11.80;74.40
19258;DHT22;9763;48.780;9.212;2024-02-26T08:54:46;11.90;74.80
19258;DHT22;9763;48.780;9.212;2024-02-26T08:58:10;12.00;74.60
19258;DHT22;9763;48.780;9.212;2024-02-26T09:01:34;12.10;75.00
19258;DHT22;9763;48.780;9.212;2024-02-26T09:04:58;12.20;75.00
19258;DHT22;9763;48.780;9.212;2024-02-26T09:08:21;12.30;75.00
19258;DHT22;9763;48.780;9.212;2024-02-26T09:11:46;12.40;74.50
19258;DHT22;9763;48.780;9.212;2024-02-26T09:15:10;12.40;74.70
19258;DHT22;9763;48.780;9.212;2024-02-26T09:18:34;12.50;74.80
19258;DHT22;9763;48.780;9.212;2024-02-26T09:21:58;12.60;74.70
19258;DHT22;9763;48.780;9.212;2024-02-26T09:25:22;12.60;74.60
19258;DHT22;9763;48.780;9.212;2024-02-26T09:28:47;12.60;74.50
19258;DHT22;9763;48.780;9.212;2024-02-26T09:32:10;12.60;74.40
19258;DHT22;9763;48.780;9.212;2024-02-26T09:35:34;12.70;74.70
19258;DHT22;9763;48.780;9.212;2024-02-26T09:38:57;12.70;74.80
19258;DHT22;9763;48.780;9.212;2024-02-26T09:42:25;12.80;74.90
19258;DHT22;9763;48.780;9.212;2024-02-26T09:45:53;12.90;74.80
19258;DHT22;9763;48.780;9.212;2024-02-26T09:49:20;13.00;74.20
19258;DHT22;9763;48.780;9.212;2024-02-26T09:52:46;13.00;74.20
19258;DHT22;9763;48.780;9.212;2024-02-26T09:56:11;13.00;74.10
19258;DHT22;9763;48.780;9.212;2024-02-26T09:59:39;13.10;74.20
19258;DHT22;9763;48.780;9.212;2024-02-26T10:03:06;13.10;73.60
19258;DHT22;9763;48.780;9.212;2024-02-26T10:06:38;13.10;74.30
19258;DHT22;9763;48.780;9.212;2024-02-26T10:10:03;13.30;76.70
19258;DHT22;9763;48.780;9.212;2024-02-26T10:13:28;13.60;78.90
19258;DHT22;9763;48.780;9.212;2024-02-26T10:16:52;14.10;80.80
19258;DHT22;9763;48.780;9.212;2024-02-26T10:20:18;14.60;82.50
19258;DHT22;9763;48.780;9.212;2024-02-26T10:23:44;15.20;82.80
19258;DHT22;9763;48.780;9.212;2024-02-26T10:27:09;15.70;81.60
19258;DHT22;9763;48.780;9.212;2024-02-26T10:30:36;16.10;79.80
19258;DHT22;9763;48.780;9.212;2024-02-26T10:34:01;16.40;79.50
19258;DHT22;9763;48.780;9.212;2024-02-26T10:37:28;16.60;79.70
19258;DHT22;9763;48.780;9.212;2024-02-26T10:40:51;16.90;79.50
19258;DHT22;9763;48.780;9.212;2024-02-26T10:44:15;17.10;79.00
19258;DHT22;9763;48.780;9.212;2024-02-26T10:47:41;17.30;78.90
19258;DHT22;9763;48.780;9.212;2024-02-26T10:51:05;17.40;77.90
19258;DHT22;9763;48.780;9.212;2024-02-26T10:54:32;17.60;77.10
19258;DHT22;9763;48.780;9.212;2024-02-26T10:57:58;17.60;76.70
19258;DHT22;9763;48.780;9.212;2024-02-26T11:01:22;17.80;77.00
19258;DHT22;9763;48.780;9.212;2024-02-26T11:04:47;17.80;76.90
19258;DHT22;9763;48.780;9.212;2024-02-26T11:08:12;17.90;76.80
19258;DHT22;9763;48.780;9.212;2024-02-26T11:11:37;17.90;76.70
19258;DHT22;9763;48.780;9.212;2024-02-26T11:15:03;18.10;78.20
19258;DHT22;9763;48.780;9.212;2024-02-26T11:18:27;18.40;80.10
19258;DHT22;9763;48.780;9.212;2024-02-26T11:21:53;18.80;80.60
19258;DHT22;9763;48.780;9.212;2024-02-26T11:25:17;19.20;80.30
19258;DHT22;9763;48.780;9.212;2024-02-26T11:28:42;19.40;78.60
19258;DHT22;9763;48.780;9.212;2024-02-26T11:32:07;19.60;76.60
19258;DHT22;9763;48.780;9.212;2024-02-26T11:35:31;19.70;75.50
19258;DHT22;9763;48.780;9.212;2024-02-26T11:38:55;19.60;74.40
19258;DHT22;9763;48.780;9.212;2024-02-26T11:42:23;19.50;73.90
19258;DHT22;9763;48.780;9.212;2024-02-26T11:45:50;19.40;72.70
19258;DHT22;9763;48.780;9.212;2024-02-26T11:49:31;19.20;72.60
19258;DHT22;9763;48.780;9.212;2024-02-26T11:53:19;19.20;70.60
19258;DHT22;9763;48.780;9.212;2024-02-26T11:56:45;18.80;70.20
19258;DHT22;9763;48.780;9.212;2024-02-26T12:00:13;18.60;72.10
19258;DHT22;9763;48.780;9.212;2024-02-26T12:03:41;18.60;72.50
19258;DHT22;9763;48.780;9.212;2024-02-26T12:07:04;18.50;72.50
19258;DHT22;9763;48.780;9.212;2024-02-26T12:10:31;18.40;73.00
19258;DHT22;9763;48.780;9.212;2024-02-26T12:13:58;18.40;72.20
19258;DHT22;9763;48.780;9.212;2024-02-26T12:17:23;18.40;72.20
19258;DHT22;9763;48.780;9.212;2024-02-26T12:20:58;18.30;71.70
19258;DHT22;9763;48.780;9.212;2024-02-26T12:24:22;18.20;69.90
19258;DHT22;9763;48.780;9.212;2024-02-26T12:27:46;18.10;71.00
19258;DHT22;9763;48.780;9.212;2024-02-26T12:31:09;18.00;70.60
19258;DHT22;9763;48.780;9.212;2024-02-26T12:34:33;17.90;70.50
19258;DHT22;9763;48.780;9.212;2024-02-26T12:37:58;17.80;70.50
19258;DHT22;9763;48.780;9.212;2024-02-26T12:41:23;17.70;70.30
19258;DHT22;9763;48.780;9.212;2024-02-26T12:44:46;17.60;70.40
19258;DHT22;9763;48.780;9.212;2024-02-26T12:48:10;17.50;70.60
19258;DHT22;9763;48.780;9.212;2024-02-26T12:51:36;17.50;71.10
19258;DHT22;9763;48.780;9.212;2024-02-26T12:55:02;17.60;71.70
19258;DHT22;9763;48.780;9.212;2024-02-26T12:58:28;17.60;71.80
19258;DHT22;9763;48.780;9.212;2024-02-26T13:01:54;17.70;71.80
19258;DHT22;9763;48.780;9.212;2024-02-26T13:05:19;17.70;71.00
19258;DHT22;9763;48.780;9.212;2024-02-26T13:08:43;17.90;70.40
19258;DHT22;9763;48.780;9.212;2024-02-26T13:12:09;17.70;70.50
19258;DHT22;9763;48.780;9.212;2024-02-26T13:15:33;17.70;70.20
19258;DHT22;9763;48.780;9.212;2024-02-26T13:18:56;17.60;70.60
19258;DHT22;9763;48.780;9.212;2024-02-26T13:22:21;17.70;70.80
19258;DHT22;9763;48.780;9.212;2024-02-26T13:25:45;17.70;70.70
19258;DHT22;9763;48.780;9.212;2024-02-26T13:29:16;17.70;70.40
19258;DHT22;9763;48.780;9.212;2024-02-26T13:32:40;17.60;69.30
19258;DHT22;9763;48.780;9.212;2024-02-26T13:36:05;17.70;70.40
19258;DHT22;9763;48.780;9.212;2024-02-26T13:39:31;17.70;70.50
19258;DHT22;9763;48.780;9.212;2024-02-26T13:42:55;17.70;70.30
19258;DHT22;9763;48.780;9.212;2024-02-26T13:46:20;17.80;70.50
19258;DHT22;9763;48.780;9.212;2024-02-26T13:49:43;17.80;70.10
19258;DHT22;9763;48.780;9.212;2024-02-26T13:53:07;17.80;70.30
19258;DHT22;9763;48.780;9.212;2024-02-26T13:56:31;17.80;69.90
19258;DHT22;9763;48.780;9.212;2024-02-26T13:59:55;17.80;70.00
19258;DHT22;9763;48.780;9.212;2024-02-26T14:03:20;17.90;69.80
19258;DHT22;9763;48.780;9.212;2024-02-26T14:06:44;17.90;69.40
19258;DHT22;9763;48.780;9.212;2024-02-26T14:10:08;17.90;69.10
19258;DHT22;9763;48.780;9.212;2024-02-26T14:13:35;17.90;69.30
19258;DHT22;9763;48.780;9.212;2024-02-26T14:17:02;17.90;69.10
19258;DHT22;9763;48.780;9.212;2024-02-26T14:20:28;17.80;69.00
19258;DHT22;9763;48.780;9.212;2024-02-26T14:23:52;17.80;68.30
19258;DHT22;9763;48.780;9.212;2024-02-26T14:27:15;17.80;67.60
19258;DHT22;9763;48.780;9.212;2024-02-26T14:30:39;17.70;67.50
19258;DHT22;9763;48.780;9.212;2024-02-26T14:34:03;17.60;67.40
19258;DHT22;9763;48.780;9.212;2024-02-26T14:37:28;17.50;67.50
19258;DHT22;9763;48.780;9.212;2024-02-26T14:40:51;17.50;67.60
19258;DHT22;9763;48.780;9.212;2024-02-26T14:44:15;17.50;68.00
19258;DHT22;9763;48.780;9.212;2024-02-26T14:47:38;17.40;67.50
19258;DHT22;9763;48.780;9.212;2024-02-26T14:51:03;17.40;67.50
19258;DHT22;9763;48.780;9.212;2024-02-26T14:54:29;17.40;67.30
19258;DHT22;9763;48.780;9.212;2024-02-26T14:57:55;17.30;66.80
19258;DHT22;9763;48.780;9.212;2024-02-26T15:01:19;17.30;67.10
19258;DHT22;9763;48.780;9.212;2024-02-26T15:04:43;17.20;66.80
19258;DHT22;9763;48.780;9.212;2024-02-26T15:08:07;17.30;67.00
19258;DHT22;9763;48.780;9.212;2024-02-26T15:11:39;17.30;66.90
19258;DHT22;9763;48.780;9.212;2024-02-26T15:15:04;17.00;66.00
19258;DHT22;9763;48.780;9.212;2024-02-26T15:18:28;17.00;66.00
19258;DHT22;9763;48.780;9.212;2024-02-26T15:21:52;16.90;65.80
19258;DHT22;9763;48.780;9.212;2024-02-26T15:25:16;16.80;66.00
19258;DHT22;9763;48.780;9.212;2024-02-26T15:28:41;16.70;66.10
19258;DHT22;9763;48.780;9.212;2024-02-26T15:32:05;16.70;66.10
19258;DHT22;9763;48.780;9.212;2024-02-26T15:35:29;16.60;66.40
19258;DHT22;9763;48.780;9.212;2024-02-26T15:38:52;16.50;65.30
19258;DHT22;9763;48.780;9.212;2024-02-26T15:42:16;16.40;66.30
19258;DHT22;9763;48.780;9.212;2024-02-26T15:45:41;16.40;66.10
19258;DHT22;9763;48.780;9.212;2024-02-26T15:49:05;16.30;65.20
19258;DHT22;9763;48.780;9.212;2024-02-26T15:52:29;16.30;65.70
19258;DHT22;9763;48.780;9.212;2024-02-26T15:55:52;16.20;66.00
19258;DHT22;9763;48.780;9.212;2024-02-26T15:59:16;16.10;65.50
19258;DHT22;9763;48.780;9.212;2024-02-26T16:02:42;16.20;66.00
19258;DHT22;9763;48.780;9.212;2024-02-26T16:06:15;16.10;66.00
19258;DHT22;9763;48.780;9.212;2024-02-26T16:09:43;16.00;65.80
19258;DHT22;9763;48.780;9.212;2024-02-26T16:13:06;16.00;66.10
19258;DHT22;9763;48.780;9.212;2024-02-26T16:16:32;15.90;66.20
19258;DHT22;9763;48.780;9.212;2024-02-26T16:19:59;15.90;66.50
19258;DHT22;9763;48.780;9.212;2024-02-26T16:23:26;15.90;66.50
19258;DHT22;9763;48.780;9.212;2024-02-26T16:26:49;15.80;66.60
19258;DHT22;9763;48.780;9.212;2024-02-26T16:30:13;15.80;66.50
19258;DHT22;9763;48.780;9.212;2024-02-26T16:33:37;15.80;66.60
19258;DHT22;9763;48.780;9.212;2024-02-26T16:37:08;15.80;66.60
19258;DHT22;9763;48.780;9.212;2024-02-26T16:40:33;15.70;65.40
19258;DHT22;9763;48.780;9.212;2024-02-26T16:43:58;15.70;66.40
19258;DHT22;9763;48.780;9.212;2024-02-26T16:47:22;15.60;66.10
19258;DHT22;9763;48.780;9.212;2024-02-26T16:50:47;15.50;66.50
19258;DHT22;9763;48.780;9.212;2024-02-26T16:54:13;15.50;66.10
19258;DHT22;9763;48.780;9.212;2024-02-26T16:57:36;15.40;66.40
19258;DHT22;9763;48.780;9.212;2024-02-26T17:01:00;15.30;66.60
19258;DHT22;9763;48.780;9.212;2024-02-26T17:04:27;15.30;66.70
19258;DHT22;9763;48.780;9.212;2024-02-26T17:07:51;15.20;66.20
19258;DHT22;9763;48.780;9.212;2024-02-26T17:11:16;15.20;66.60
19258;DHT22;9763;48.780;9.212;2024-02-26T17:14:40;15.10;66.40
19258;DHT22;9763;48.780;9.212;2024-02-26T17:18:07;15.10;66.60
19258;DHT22;9763;48.780;9.212;2024-02-26T17:21:35;15.10;66.50
19258;DHT22;9763;48.780;9.212;2024-02-26T17:25:00;15.00;66.50
19258;DHT22;9763;48.780;9.212;2024-02-26T17:28:25;15.00;66.30
19258;DHT22;9763;48.780;9.212;2024-02-26T17:31:48;14.90;66.10
19258;DHT22;9763;48.780;9.212;2024-02-26T17:35:12;14.80;66.20
19258;DHT22;9763;48.780;9.212;2024-02-26T17:38:37;14.80;66.20
19258;DHT22;9763;48.780;9.212;2024-02-26T17:42:02;14.70;66.00
19258;DHT22;9763;48.780;9.212;2024-02-26T17:45:27;14.70;66.10
19258;DHT22;9763;48.780;9.212;2024-02-26T17:48:51;14.70;66.20
19258;DHT22;9763;48.780;9.212;2024-02-26T17:52:15;14.70;66.20
19258;DHT22;9763;48.780;9.212;2024-02-26T17:55:39;14.70;66.40
19258;DHT22;9763;48.780;9.212;2024-02-26T17:59:03;14.60;66.20
19258;DHT22;9763;48.780;9.212;2024-02-26T18:02:28;14.60;66.30
19258;DHT22;9763;48.780;9.212;2024-02-26T18:05:52;14.60;66.30
19258;DHT22;9763;48.780;9.212;2024-02-26T18:09:15;14.60;66.50
19258;DHT22;9763;48.780;9.212;2024-02-26T18:12:39;14.60;66.40
19258;DHT22;9763;48.780;9.212;2024-02-26T18:16:04;14.60;66.40
19258;DHT22;9763;48.780;9.212;2024-02-26T18:19:29;14.60;66.30
19258;DHT22;9763;48.780;9.212;2024-02-26T18:22:53;14.50;66.10
19258;DHT22;9763;48.780;9.212;2024-02-26T18:26:17;14.50;66.40
19258;DHT22;9763;48.780;9.212;2024-02-26T18:29:43;14.40;66.20
19258;DHT22;9763;48.780;9.212;2024-02-26T18:33:07;14.40;66.20
19258;DHT22;9763;48.780;9.212;2024-02-26T18:36:32;14.40;66.50
19258;DHT22;9763;48.780;9.212;2024-02-26T18:39:56;14.30;66.40
19258;DHT22;9763;48.780;9.212;2024-02-26T18:43:19;14.30;66.70
19258;DHT22;9763;48.780;9.212;2024-02-26T18:46:44;14.30;66.80
19258;DHT22;9763;48.780;9.212;2024-02-26T18:50:09;14.30;66.90
19258;DHT22;9763;48.780;9.212;2024-02-26T18:53:34;14.30;67.00
19258;DHT22;9763;48.780;9.212;2024-02-26T18:56:57;14.30;66.90
19258;DHT22;9763;48.780;9.212;2024-02-26T19:00:21;14.30;67.00
19258;DHT22;9763;48.780;9.212;2024-02-26T19:03:44;14.30;67.00
19258;DHT22;9763;48.780;9.212;2024-02-26T19:07:09;14.30;67.00
19258;DHT22;9763;48.780;9.212;2024-02-26T19:10:34;14.20;66.90
19258;DHT22;9763;48.780;9.212;2024-02-26T19:13:58;14.20;66.80
19258;DHT22;9763;48.780;9.212;2024-02-26T19:17:22;14.20;66.70
19258;DHT22;9763;48.780;9.212;2024-02-26T19:20:46;14.10;67.00
19258;DHT22;9763;48.780;9.212;2024-02-26T19:24:10;14.10;67.00
19258;DHT22;9763;48.780;9.212;2024-02-26T19:27:36;14.00;67.00
19258;DHT22;9763;48.780;9.212;2024-02-26T19:31:01;14.00;67.00
19258;DHT22;9763;48.780;9.212;2024-02-26T19:34:24;14.00;67.00
19258;DHT22;9763;48.780;9.212;2024-02-26T19:37:48;14.00;67.00
19258;DHT22;9763;48.780;9.212;2024-02-26T19:41:11;13.90;67.00
19258;DHT22;9763;48.780;9.212;2024-02-26T19:44:37;13.90;67.10
19258;DHT22;9763;48.780;9.212;2024-02-26T19:48:00;13.90;66.90
19258;DHT22;9763;48.780;9.212;2024-02-26T19:51:24;13.80;67.00
19258;DHT22;9763;48.780;9.212;2024-02-26T19:54:48;13.80;67.20
19258;DHT22;9763;48.780;9.212;2024-02-26T19:58:11;13.80;67.30
19258;DHT22;9763;48.780;9.212;2024-02-26T20:01:36;13.80;67.30
19258;DHT22;9763;48.780;9.212;2024-02-26T20:05:00;13.80;67.40
19258;DHT22;9763;48.780;9.212;2024-02-26T20:08:24;13.80;67.60
19258;DHT22;9763;48.780;9.212;2024-02-26T20:11:48;13.80;67.60
19258;DHT22;9763;48.780;9.212;2024-02-26T20:15:13;13.70;67.50
19258;DHT22;9763;48.780;9.212;2024-02-26T20:18:37;13.70;67.60
19258;DHT22;9763;48.780;9.212;2024-02-26T20:22:01;13.70;67.50
19258;DHT22;9763;48.780;9.212;2024-02-26T20:25:25;13.70;68.40
19258;DHT22;9763;48.780;9.212;2024-02-26T20:28:50;13.70;67.60
19258;DHT22;9763;48.780;9.212;2024-02-26T20:32:13;13.70;67.60
19258;DHT22;9763;48.780;9.212;2024-02-26T20:35:38;13.70;67.80
19258;DHT22;9763;48.780;9.212;2024-02-26T20:39:02;13.70;67.80
19258;DHT22;9763;48.780;9.212;2024-02-26T20:42:27;13.70;67.90
19258;DHT22;9763;48.780;9.212;2024-02-26T20:45:50;13.70;68.00
19258;DHT22;9763;48.780;9.212;2024-02-26T20:49:14;13.60;67.90
19258;DHT22;9763;48.780;9.212;2024-02-26T20:52:40;13.60;68.00
19258;DHT22;9763;48.780;9.212;2024-02-26T20:56:05;13.60;68.00
19258;DHT22;9763;48.780;9.212;2024-02-26T20:59:30;13.60;68.00
19258;DHT22;9763;48.780;9.212;2024-02-26T21:02:54;13.60;68.00
19258;DHT22;9763;48.780;9.212;2024-02-26T21:06:18;13.60;68.20
19258;DHT22;9763;48.780;9.212;2024-02-26T21:09:43;13.60;68.20
19258;DHT22;9763;48.780;9.212;2024-02-26T21:13:07;13.60;68.20
19258;DHT22;9763;48.780;9.212;2024-02-26T21:16:30;13.60;68.30
19258;DHT22;9763;48.780;9.212;2024-02-26T21:19:54;13.60;68.40
19258;DHT22;9763;48.780;9.212;2024-02-26T21:23:18;13.60;68.40
19258;DHT22;9763;48.780;9.212;2024-02-26T21:26:44;13.60;68.30
19258;DHT22;9763;48.780;9.212;2024-02-26T21:30:10;13.50;68.00
19258;DHT22;9763;48.780;9.212;2024-02-26T21:33:35;13.50;68.00
19258;DHT22;9763;48.780;9.212;2024-02-26T21:36:58;13.40;68.60
19258;DHT22;9763;48.780;9.212;2024-02-26T21:40:22;13.40;68.20
19258;DHT22;9763;48.780;9.212;2024-02-26T21:43:47;13.30;68.10
19258;DHT22;9763;48.780;9.212;2024-02-26T21:47:13;13.30;68.10
19258;DHT22;9763;48.780;9.212;2024-02-26T21:50:37;13.30;68.30